Time;durP1;ratioP1;P1;durP2;ratioP2;P2;SDS_P1;SDS_P2;PMS_P1;PMS_P2;Temp;Humidity;BMP_temperature;BMP_pressure;BME280_temperature;BME280_humidity;BME280_pressure;Samples;Min_cycle;Max_cycle;Signal;HPM_P1;HPM_P2
2024/03/10 00:00:47;;;;;;;11.52;5.95;;;;;;;28.13;30.80;97721.16;7389722;19;20014;-92
2024/03/10 00:03:13;;;;;;;12.00;5.45;;;;;;;28.14;30.80;97719.78;7391338;19;20022;-93
2024/03/10 00:05:39;;;;;;;22.77;7.32;;;;;;;28.60;30.51;97723.91;7392647;19;20047;-92
2024/03/10 00:08:05;;;;;;;15.77;4.28;;;;;;;28.23;30.59;97715.13;7388050;19;20440;-92
2024/03/10 00:10:37;;;;;;;19.90;5.75;;;;;;;28.35;30.30;97710.66;7387813;19;20037;-92
2024/03/10 00:13:04;;;;;;;18.88;8.43;;;;;;;29.50;29.67;97712.50;7388256;19;20026;-92
2024/03/10 00:15:33;;;;;;;13.43;5.25;;;;;;;29.24;29.65;97708.63;7387079;19;20011;-92
2024/03/10 00:17:59;;;;;;;12.68;4.45;;;;;;;29.36;29.96;97703.38;7395975;19;20019;-92
2024/03/10 00:20:26;;;;;;;13.32;6.55;;;;;;;29.33;29.83;97710.41;7390053;19;20023;-92
2024/03/10 00:22:52;;;;;;;31.55;8.05;;;;;;;29.41;29.65;97699.25;7389215;19;20365;-92
2024/03/10 00:25:18;;;;;;;22.80;8.18;;;;;;;29.22;30.16;97694.94;7388312;19;20574;-92
2024/03/10 00:27:44;;;;;;;11.10;4.75;;;;;;;30.22;29.24;97696.50;7391562;19;20082;-92
2024/03/10 00:30:10;;;;;;;30.92;5.40;;;;;;;30.37;28.71;97684.13;7398684;19;20017;-93
2024/03/10 00:32:37;;;;;;;14.55;5.78;;;;;;;30.50;28.87;97691.78;7396323;19;20047;-92
2024/03/10 00:35:07;;;;;;;15.95;7.03;;;;;;;30.60;28.62;97700.75;7394269;19;20022;-92
2024/03/10 00:37:33;;;;;;;12.43;5.07;;;;;;;30.88;28.31;97704.59;7397012;19;20030;-92
2024/03/10 00:40:00;;;;;;;7.70;4.95;;;;;;;30.90;28.17;97692.41;7396361;19;20350;-92
2024/03/10 00:42:26;;;;;;;20.17;6.82;;;;;;;30.89;28.43;97702.44;7396778;19;20062;-92
2024/03/10 00:44:52;;;;;;;20.80;4.97;;;;;;;30.87;28.47;97697.34;7394582;19;20025;-92
2024/03/10 00:47:20;;;;;;;35.05;6.38;;;;;;;31.13;28.40;97691.69;7394074;19;20064;-91
2024/03/10 00:49:46;;;;;;;19.67;7.13;;;;;;;31.27;27.99;97695.75;7394184;19;20015;-91
2024/03/10 00:52:12;;;;;;;7.47;3.65;;;;;;;31.27;27.99;97690.00;7395593;19;20020;-92
2024/03/10 00:54:39;;;;;;;13.40;5.45;;;;;;;31.40;28.13;97696.88;7399308;19;20023;-92
2024/03/10 00:57:05;;;;;;;10.75;4.40;;;;;;;31.55;27.70;97701.69;7400064;19;20495;-92
2024/03/10 00:59:31;;;;;;;30.02;6.35;;;;;;;31.29;27.99;97709.47;7395808;19;20011;-92
2024/03/10 01:01:59;;;;;;;12.65;5.97;;;;;;;31.64;27.99;97706.25;7396364;19;20489;-92
2024/03/10 01:04:25;;;;;;;15.25;4.35;;;;;;;32.41;27.17;97706.28;7399815;19;20041;-92
2024/03/10 01:06:51;;;;;;;8.15;3.15;;;;;;;32.20;27.25;97706.44;7393814;19;20021;-92
2024/03/10 01:09:18;;;;;;;21.20;6.72;;;;;;;32.32;26.99;97703.88;7394045;19;20011;-93
2024/03/10 01:11:48;;;;;;;17.58;5.80;;;;;;;32.83;26.80;97692.25;7395227;19;20022;-94
2024/03/10 01:14:14;;;;;;;14.43;4.32;;;;;;;32.03;27.59;97702.38;7393808;19;20033;-93
2024/03/10 01:16:43;;;;;;;21.95;7.38;;;;;;;32.45;26.89;97699.88;7393968;19;20074;-94
2024/03/10 01:19:10;;;;;;;16.98;6.05;;;;;;;31.84;27.56;97701.09;7397783;19;20010;-95
2024/03/10 01:21:36;;;;;;;14.05;5.40;;;;;;;31.61;27.55;97698.22;7394917;19;20026;-95
2024/03/10 01:24:03;;;;;;;11.35;4.40;;;;;;;31.68;27.50;97699.88;7396698;19;20014;-95
2024/03/10 01:26:30;;;;;;;15.10;5.22;;;;;;;31.78;27.31;97694.41;7392996;19;20025;-96
2024/03/10 01:28:56;;;;;;;18.15;4.78;;;;;;;31.81;27.65;97693.06;7395345;19;20041;-96
2024/03/10 01:31:25;;;;;;;12.10;4.57;;;;;;;31.99;27.28;97684.97;7395746;19;20111;-96
2024/03/10 01:33:52;;;;;;;33.85;7.10;;;;;;;32.25;27.10;97688.56;7396430;19;20021;-96
2024/03/10 01:36:18;;;;;;;10.05;5.03;;;;;;;32.42;27.18;97696.22;7395017;19;20014;-95
2024/03/10 01:38:44;;;;;;;12.93;4.60;;;;;;;32.44;27.03;97692.69;7396065;19;20388;-94
2024/03/10 01:41:13;;;;;;;15.52;6.30;;;;;;;32.47;27.16;97685.53;7401262;19;20058;-96
2024/03/10 01:43:47;;;;;;;12.70;5.55;;;;;;;32.72;26.97;97694.16;7418020;19;20006;-96
2024/03/10 01:46:15;;;;;;;22.55;5.20;;;;;;;33.02;26.87;97691.31;7404003;19;20026;-96
2024/03/10 01:48:43;;;;;;;26.27;5.72;;;;;;;32.05;27.53;97693.78;7403260;19;20014;-96
2024/03/10 01:51:13;;;;;;;7.63;4.30;;;;;;;32.61;27.05;97686.69;7404275;19;20014;-95
2024/03/10 01:53:40;;;;;;;14.02;5.05;;;;;;;32.95;26.69;97681.00;7403251;19;20037;-96
2024/03/10 01:56:07;;;;;;;19.23;5.68;;;;;;;32.90;26.84;97680.19;7394307;19;20019;-96
2024/03/10 01:58:36;;;;;;;14.45;5.35;;;;;;;32.83;27.05;97686.50;7402929;19;20014;-95
2024/03/10 02:01:03;;;;;;;10.88;5.10;;;;;;;32.69;27.10;97678.22;7396538;19;20018;-96
2024/03/10 02:03:30;;;;;;;11.75;3.85;;;;;;;32.78;26.95;97679.16;7402138;19;20021;-95
2024/03/10 02:05:56;;;;;;;15.40;4.57;;;;;;;33.43;26.49;97659.06;7395443;19;20094;-95
2024/03/10 02:08:23;;;;;;;22.63;3.72;;;;;;;32.53;27.26;97665.56;7394216;19;20014;-94
2024/03/10 02:10:51;;;;;;;8.60;4.30;;;;;;;32.97;26.80;97660.13;7392986;19;20476;-94
2024/03/10 02:13:18;;;;;;;14.98;4.93;;;;;;;33.18;26.61;97662.09;7390391;19;20015;-95
2024/03/10 02:16:05;;;;;;;10.07;3.30;;;;;;;33.03;26.69;97663.19;7394263;19;20398;-93
2024/03/10 02:18:35;;;;;;;9.88;3.53;;;;;;;32.99;26.56;97651.53;7394158;19;20026;-92
2024/03/10 02:21:03;;;;;;;7.43;2.60;;;;;;;32.87;27.00;97655.59;7396008;19;20014;-92
2024/03/10 02:24:03;;;;;;;11.65;4.32;;;;;;;32.84;26.48;97659.13;7394118;19;20029;-94
2024/03/10 02:26:36;;;;;;;9.30;4.73;;;;;;;32.83;27.21;97652.59;7396976;19;20480;-95
2024/03/10 02:29:18;;;;;;;16.00;4.05;;;;;;;32.90;26.67;97650.59;7396591;19;20018;-95
2024/03/10 02:48:36;;;;;;;11.00;4.60;;;;;;;32.73;27.30;97661.03;7391163;19;20018;-92
2024/03/10 02:51:02;;;;;;;11.82;4.68;;;;;;;33.08;26.63;97653.22;7393346;19;20018;-92
2024/03/10 02:53:29;;;;;;;15.63;3.75;;;;;;;32.71;27.24;97649.44;7391525;19;20047;-93
2024/03/10 02:55:55;;;;;;;11.57;4.15;;;;;;;32.75;27.23;97640.88;7392383;19;20018;-94
2024/03/10 02:58:21;;;;;;;10.43;2.83;;;;;;;32.72;27.39;97630.00;7398923;19;20039;-96
2024/03/10 03:00:48;;;;;;;13.23;4.70;;;;;;;32.81;26.99;97637.44;7393450;19;20010;-94
2024/03/10 03:03:14;;;;;;;20.90;4.07;;;;;;;32.90;27.41;97639.06;7396760;19;20011;-95
2024/03/10 03:05:40;;;;;;;10.10;3.58;;;;;;;32.82;27.45;97638.88;7392487;19;20533;-95
2024/03/10 03:08:07;;;;;;;17.88;4.75;;;;;;;32.71;27.17;97623.50;7391678;19;20382;-94
2024/03/10 03:10:33;;;;;;;9.90;4.13;;;;;;;32.71;26.90;97622.75;7392073;19;20536;-93
2024/03/10 03:12:59;;;;;;;16.55;5.30;;;;;;;32.83;27.22;97620.88;7392451;19;20360;-96
2024/03/10 03:15:25;;;;;;;12.48;3.45;;;;;;;32.81;27.18;97620.84;7395132;19;20014;-96
2024/03/10 03:17:51;;;;;;;6.10;2.05;;;;;;;33.27;26.74;97618.31;7394434;19;20089;-96
2024/03/10 03:20:20;;;;;;;8.88;4.65;;;;;;;33.39;26.72;97614.94;7391859;19;20007;-95
2024/03/10 03:22:48;;;;;;;7.53;3.15;;;;;;;33.44;26.73;97613.63;7393987;19;20019;-93
2024/03/10 03:25:17;;;;;;;11.20;3.85;;;;;;;33.52;26.65;97616.69;7393901;19;20023;-93
2024/03/10 03:27:48;;;;;;;22.77;5.28;;;;;;;33.48;26.76;97619.47;7394894;19;20018;-95
2024/03/10 03:30:16;;;;;;;6.25;2.85;;;;;;;33.51;26.97;97606.56;7392886;19;20035;-93
2024/03/10 03:32:42;;;;;;;20.60;5.35;;;;;;;33.73;26.21;97612.78;7390985;19;20010;-94
2024/03/10 03:35:11;;;;;;;22.15;5.30;;;;;;;33.68;26.52;97608.34;7393251;19;20022;-94
2024/03/10 03:37:38;;;;;;;11.23;4.45;;;;;;;33.77;26.36;97604.19;7395394;19;20090;-94
2024/03/10 03:40:08;;;;;;;11.48;3.45;;;;;;;33.48;26.46;97605.75;7393599;19;20353;-93
2024/03/10 03:42:35;;;;;;;27.45;5.25;;;;;;;32.73;27.07;97614.16;7393267;19;20010;-94
2024/03/10 03:45:04;;;;;;;15.07;3.90;;;;;;;32.71;27.00;97606.19;7390902;19;20022;-94
2024/03/10 03:47:33;;;;;;;7.40;3.88;;;;;;;32.83;27.25;97612.22;7394954;19;20014;-94
2024/03/10 03:50:00;;;;;;;11.05;4.15;;;;;;;32.81;26.92;97620.13;7392524;19;20018;-94
2024/03/10 03:52:26;;;;;;;10.35;5.13;;;;;;;32.71;27.14;97605.44;7391192;19;20014;-94
2024/03/10 03:54:52;;;;;;;9.10;4.18;;;;;;;32.54;27.39;97613.00;7393319;19;20026;-94
2024/03/10 03:57:19;;;;;;;12.30;3.58;;;;;;;32.61;27.18;97608.84;7395304;19;20035;-94
2024/03/10 03:59:45;;;;;;;16.48;6.15;;;;;;;32.73;27.31;97606.25;7396772;19;20022;-94
2024/03/10 04:02:11;;;;;;;19.25;4.80;;;;;;;32.83;27.30;97594.22;7391711;19;20018;-94
2024/03/10 04:04:38;;;;;;;13.05;5.80;;;;;;;32.83;27.02;97594.22;7396139;19;20025;-94
2024/03/10 04:07:04;;;;;;;15.27;5.05;;;;;;;32.75;27.49;97602.66;7397844;19;20006;-94
2024/03/10 04:09:31;;;;;;;13.40;5.22;;;;;;;32.81;27.15;97586.22;7397283;19;20038;-94
2024/03/10 04:11:57;;;;;;;11.75;3.80;;;;;;;33.28;26.57;97588.03;7401084;19;20010;-94
2024/03/10 04:14:23;;;;;;;18.45;5.85;;;;;;;33.73;26.22;97589.69;7397634;19;20015;-94
2024/03/10 04:16:50;;;;;;;9.80;4.65;;;;;;;33.65;26.06;97589.53;7400597;19;20014;-94
2024/03/10 04:19:17;;;;;;;11.52;4.57;;;;;;;33.83;26.42;97586.97;7400313;19;20350;-94
2024/03/10 04:21:43;;;;;;;17.98;6.40;;;;;;;34.07;26.42;97589.63;7399657;19;20018;-94
2024/03/10 04:24:10;;;;;;;12.68;5.45;;;;;;;34.77;25.60;97581.41;7399675;19;20018;-94
2024/03/10 04:26:42;;;;;;;18.55;4.25;;;;;;;34.61;25.51;97593.47;7397674;19;20450;-94
2024/03/10 04:29:09;;;;;;;10.80;4.45;;;;;;;34.54;25.68;97591.91;7400405;19;20040;-95
2024/03/10 04:31:36;;;;;;;10.15;3.33;;;;;;;34.58;25.66;97600.66;7402048;19;20356;-94
2024/03/10 04:34:03;;;;;;;13.75;4.35;;;;;;;35.11;25.45;97613.06;7400223;19;20776;-96
2024/03/10 04:36:29;;;;;;;16.98;2.97;;;;;;;35.46;24.93;97607.00;7396369;19;20093;-95
2024/03/10 04:38:56;;;;;;;9.93;4.03;;;;;;;34.55;25.56;97607.81;7400313;19;20017;-96
2024/03/10 04:41:23;;;;;;;12.38;3.75;;;;;;;34.45;26.05;97598.22;7401106;19;20368;-94
2024/03/10 04:43:49;;;;;;;12.10;4.68;;;;;;;34.47;26.00;97596.09;7403154;19;20029;-95
2024/03/10 04:46:17;;;;;;;8.88;2.95;;;;;;;34.27;25.87;97602.28;7397075;19;20015;-94
2024/03/10 04:48:45;;;;;;;4.68;3.10;;;;;;;34.31;25.67;97596.56;7401498;19;20011;-94
2024/03/10 04:51:13;;;;;;;6.15;2.70;;;;;;;34.19;26.19;97596.38;7401713;19;20015;-96
2024/03/10 04:53:39;;;;;;;4.68;2.50;;;;;;;33.13;26.74;97597.06;7399221;19;20059;-94
2024/03/10 04:56:05;;;;;;;15.73;4.00;;;;;;;33.08;26.80;97604.16;7400224;19;20015;-96
2024/03/10 04:58:31;;;;;;;5.97;1.90;;;;;;;32.96;27.18;97603.88;7398710;19;20414;-95
2024/03/10 05:00:57;;;;;;;13.45;3.38;;;;;;;32.77;27.23;97599.81;7399120;19;20003;-95
2024/03/10 05:03:23;;;;;;;5.60;4.15;;;;;;;32.65;27.14;97591.63;7399404;19;20353;-94
2024/03/10 05:05:50;;;;;;;5.07;1.80;;;;;;;32.57;27.32;97594.31;7395578;19;20089;-95
2024/03/10 05:08:16;;;;;;;6.13;2.45;;;;;;;32.62;27.23;97595.88;7399003;19;20041;-95
2024/03/10 05:10:42;;;;;;;4.95;3.40;;;;;;;32.33;27.39;97602.34;7396286;19;20036;-94
2024/03/10 05:13:09;;;;;;;3.53;2.28;;;;;;;32.50;27.26;97607.13;7395385;19;20022;-95
2024/03/10 05:15:35;;;;;;;4.97;1.90;;;;;;;33.08;27.01;97607.03;7394192;19;20079;-96
2024/03/10 05:18:02;;;;;;;3.60;2.33;;;;;;;33.33;26.63;97609.06;7398810;19;20119;-94
2024/03/10 05:20:28;;;;;;;3.60;1.83;;;;;;;33.44;26.69;97607.84;7396503;19;20014;-94
2024/03/10 05:22:55;;;;;;;2.90;1.52;;;;;;;33.44;26.22;97607.84;7396046;19;20022;-95
2024/03/10 05:25:22;;;;;;;7.13;2.13;;;;;;;33.33;26.67;97617.72;7393341;19;20066;-95
2024/03/10 05:27:49;;;;;;;3.33;2.28;;;;;;;33.35;26.76;97606.22;7397198;19;20014;-95
2024/03/10 05:30:16;;;;;;;5.35;2.70;;;;;;;33.53;26.66;97609.50;7397166;19;20022;-95
2024/03/10 05:32:42;;;;;;;7.72;2.60;;;;;;;33.52;26.87;97619.59;7395307;19;20081;-96
2024/03/10 05:35:09;;;;;;;3.90;3.13;;;;;;;33.27;26.77;97617.56;7393744;19;20082;-95
2024/03/10 05:37:36;;;;;;;4.78;2.17;;;;;;;33.19;26.69;97608.75;7394115;19;20025;-94
2024/03/10 05:40:06;;;;;;;1.40;0.82;;;;;;;33.08;26.86;97612.81;7397641;19;20333;-95
2024/03/10 05:42:32;;;;;;;3.47;1.45;;;;;;;33.13;26.99;97620.16;7397887;19;20050;-95
2024/03/10 05:45:02;;;;;;;1.58;1.55;;;;;;;33.24;26.73;97613.19;7394776;19;20022;-95
2024/03/10 05:47:31;;;;;;;8.88;2.42;;;;;;;33.30;27.13;97613.31;7394130;19;20022;-95
2024/03/10 05:49:57;;;;;;;9.63;2.13;;;;;;;33.40;27.00;97607.75;7395537;19;20022;-96
2024/03/10 05:52:24;;;;;;;1.85;0.52;;;;;;;33.45;26.80;97607.16;7392901;19;20018;-96
2024/03/10 05:54:50;;;;;;;1.73;0.98;;;;;;;33.51;27.09;97621.72;7395272;19;20529;-94
2024/03/10 05:57:16;;;;;;;1.48;1.38;;;;;;;33.42;26.90;97622.22;7397768;19;20019;-95
2024/03/10 05:59:47;;;;;;;9.43;2.72;;;;;;;33.44;27.27;97630.94;7396759;19;20018;-96
2024/03/10 06:02:13;;;;;;;2.37;1.63;;;;;;;33.76;27.35;97620.09;7395954;19;20017;-94
2024/03/10 06:04:44;;;;;;;2.20;0.80;;;;;;;33.81;27.00;97630.28;7398651;19;20776;-96
2024/03/10 06:07:11;;;;;;;3.65;1.35;;;;;;;33.79;27.04;97624.47;7396273;19;20014;-95
2024/03/10 06:09:37;;;;;;;5.63;1.90;;;;;;;33.69;27.19;97632.94;7392020;19;20510;-95
2024/03/10 06:12:04;;;;;;;14.63;2.60;;;;;;;33.91;27.10;97630.47;7391984;19;20022;-95
2024/03/10 06:14:33;;;;;;;9.23;2.65;;;;;;;32.68;28.33;97630.63;7392087;19;20011;-95
2024/03/10 06:17:00;;;;;;;2.67;1.08;;;;;;;32.56;28.60;97624.56;7399452;19;20083;-96
2024/03/10 06:27:42;;;;;;;2.00;0.93;;;;;;;33.05;27.73;97643.78;7395236;19;20018;-94
2024/03/10 06:30:12;;;;;;;0.47;0.47;;;;;;;32.86;28.27;97648.34;7391563;19;20551;-96
2024/03/10 06:32:38;;;;;;;5.60;1.63;;;;;;;32.92;28.13;97660.03;7390715;19;20010;-96
2024/03/10 06:35:06;;;;;;;5.97;2.05;;;;;;;32.99;28.03;97651.53;7391184;19;20015;-94
2024/03/10 06:37:35;;;;;;;5.65;2.33;;;;;;;32.45;28.77;97654.53;7394334;19;20340;-96
2024/03/10 06:40:03;;;;;;;5.57;1.58;;;;;;;33.37;27.81;97656.06;7395425;19;20031;-95
2024/03/10 06:42:29;;;;;;;1.52;0.95;;;;;;;33.93;27.56;97652.88;7395485;19;20023;-96
2024/03/10 06:44:56;;;;;;;5.50;2.55;;;;;;;34.22;27.28;97652.75;7392184;19;20027;-95
2024/03/10 06:47:22;;;;;;;2.85;1.17;;;;;;;34.20;27.70;97660.66;7393343;19;20015;-95
2024/03/10 06:49:48;;;;;;;5.20;1.15;;;;;;;34.30;27.29;97667.38;7392247;19;20037;-95
2024/03/10 06:52:14;;;;;;;2.60;1.15;;;;;;;34.40;27.49;97663.19;7392912;19;20035;-96
2024/03/10 06:54:41;;;;;;;2.20;2.05;;;;;;;33.50;27.84;97668.59;7392768;19;20014;-96
2024/03/10 06:57:07;;;;;;;8.60;3.28;;;;;;;33.35;28.05;97670.41;7396776;19;20018;-95
2024/03/10 06:59:34;;;;;;;3.10;2.35;;;;;;;34.41;27.49;97673.31;7392123;19;20011;-96
2024/03/10 07:02:00;;;;;;;4.82;1.85;;;;;;;34.09;27.58;97674.19;7392433;19;20017;-96
2024/03/10 07:04:29;;;;;;;1.58;1.48;;;;;;;33.94;27.82;97681.06;7393192;19;20029;-96
2024/03/10 07:06:55;;;;;;;1.65;1.23;;;;;;;34.39;27.44;97682.72;7390673;19;20499;-94
2024/03/10 07:09:21;;;;;;;3.25;1.88;;;;;;;34.65;27.36;97685.34;7392134;19;20022;-94
2024/03/10 07:11:48;;;;;;;12.50;2.05;;;;;;;34.71;27.15;97685.44;7395822;19;20043;-95
2024/03/10 07:14:18;;;;;;;6.95;3.20;;;;;;;35.60;26.27;97685.44;7392298;19;20010;-95
2024/03/10 07:16:47;;;;;;;5.35;2.22;;;;;;;35.90;26.17;97681.44;7396457;19;20015;-95
2024/03/10 07:19:17;;;;;;;15.05;1.88;;;;;;;36.27;26.15;97686.25;7395322;19;20014;-95
2024/03/10 07:21:44;;;;;;;6.18;1.67;;;;;;;36.32;26.00;97687.75;7394595;19;20014;-95
2024/03/10 07:24:10;;;;;;;5.18;1.60;;;;;;;36.39;25.81;97695.06;7394904;19;20033;-95
2024/03/10 07:26:36;;;;;;;7.53;1.42;;;;;;;36.73;25.60;97704.13;7392303;19;20014;-95
2024/03/10 07:29:03;;;;;;;2.33;1.52;;;;;;;36.72;25.54;97711.38;7393901;19;20018;-94
2024/03/10 07:31:29;;;;;;;3.80;2.30;;;;;;;35.95;26.01;97723.53;7395261;19;20019;-94
2024/03/10 07:33:55;;;;;;;10.68;2.30;;;;;;;35.94;26.10;97722.06;7392817;19;20472;-95
2024/03/10 07:36:22;;;;;;;2.00;1.45;;;;;;;36.04;26.15;97719.31;7392112;19;20047;-95
2024/03/10 07:38:51;;;;;;;3.65;1.40;;;;;;;36.10;26.49;97722.28;7393571;19;20039;-95
2024/03/10 07:41:18;;;;;;;3.35;1.33;;;;;;;35.62;26.25;97728.91;7395166;19;20026;-95
2024/03/10 07:43:45;;;;;;;3.78;2.08;;;;;;;35.99;26.00;97723.59;7396595;19;20415;-94
2024/03/10 07:46:11;;;;;;;5.82;2.10;;;;;;;34.96;26.62;97733.59;7390570;19;20014;-94
2024/03/10 07:48:37;;;;;;;3.35;1.35;;;;;;;34.55;26.77;97732.16;7397416;19;20341;-95
2024/03/10 07:51:04;;;;;;;11.48;2.10;;;;;;;34.54;27.15;97733.59;7393233;19;20018;-93
2024/03/10 07:53:30;;;;;;;8.15;1.83;;;;;;;33.93;27.64;97748.97;7392935;19;20029;-94
2024/03/10 07:55:58;;;;;;;5.45;2.15;;;;;;;34.00;27.66;97736.09;7391863;19;20047;-95
2024/03/10 07:58:26;;;;;;;6.25;1.40;;;;;;;33.89;27.65;97737.31;7396120;19;20003;-96
2024/03/10 08:00:54;;;;;;;7.15;1.63;;;;;;;33.20;28.02;97760.25;7392003;19;20019;-96
2024/03/10 08:03:21;;;;;;;2.10;1.10;;;;;;;33.62;27.87;97761.25;7394795;19;20014;-95
2024/03/10 08:05:47;;;;;;;10.10;2.50;;;;;;;33.09;28.37;97770.81;7392152;19;20015;-96
2024/03/10 08:08:13;;;;;;;7.63;1.77;;;;;;;33.12;28.27;97763.66;7393766;19;20048;-95
2024/03/10 08:10:39;;;;;;;2.20;1.15;;;;;;;33.06;28.65;97780.09;7391463;19;20110;-96
2024/03/10 08:13:05;;;;;;;4.10;1.75;;;;;;;32.99;28.67;97781.31;7391993;19;20018;-95
2024/03/10 08:15:32;;;;;;;2.33;1.77;;;;;;;33.32;28.08;97780.72;7391870;19;20014;-96
2024/03/10 08:17:58;;;;;;;1.55;1.15;;;;;;;33.51;28.36;97786.28;7395431;19;20022;-94
2024/03/10 08:20:25;;;;;;;6.82;2.38;;;;;;;34.50;27.51;97785.53;7393872;19;20018;-95
2024/03/10 08:22:54;;;;;;;3.33;1.77;;;;;;;35.04;27.17;97794.53;7390056;19;20014;-95
2024/03/10 08:25:20;;;;;;;7.05;2.13;;;;;;;35.83;26.00;97792.88;7392006;19;20033;-94
2024/03/10 08:27:49;;;;;;;8.98;1.75;;;;;;;35.80;26.69;97798.66;7395531;19;20528;-94
2024/03/10 08:30:15;;;;;;;9.05;2.72;;;;;;;35.72;26.30;97804.34;7391583;19;20006;-96
2024/03/10 08:32:43;;;;;;;3.22;2.50;;;;;;;35.42;26.64;97800.97;7396301;19;20010;-96
2024/03/10 08:35:09;;;;;;;1.98;1.48;;;;;;;35.37;26.84;97801.59;7395904;19;20018;-96
2024/03/10 08:37:36;;;;;;;6.20;2.15;;;;;;;35.37;26.88;97808.09;7396177;19;20021;-95
2024/03/10 08:40:10;;;;;;;6.03;2.10;;;;;;;35.39;26.45;97804.53;7392641;19;20436;-96
2024/03/10 08:42:43;;;;;;;12.27;1.45;;;;;;;35.23;26.52;97810.78;7397934;19;20022;-96
2024/03/10 08:45:11;;;;;;;3.05;1.65;;;;;;;35.46;26.92;97803.91;7395762;19;20022;-96
2024/03/10 08:47:39;;;;;;;3.47;1.15;;;;;;;35.48;26.63;97809.75;7394181;19;20018;-96
2024/03/10 08:50:09;;;;;;;2.92;1.35;;;;;;;34.90;26.88;97808.72;7397889;19;20015;-96
2024/03/10 08:52:37;;;;;;;4.47;1.85;;;;;;;35.33;26.82;97816.72;7399754;19;20092;-96
2024/03/10 08:55:05;;;;;;;15.30;2.00;;;;;;;34.91;27.24;97815.97;7400686;19;20106;-96
2024/03/10 08:57:35;;;;;;;12.85;2.28;;;;;;;34.82;26.97;97825.94;7401415;19;20372;-96
2024/03/10 09:00:06;;;;;;;3.45;2.33;;;;;;;34.71;27.49;97835.84;7398822;19;20016;-96
2024/03/10 09:02:32;;;;;;;4.07;1.60;;;;;;;34.80;27.22;97835.31;7399298;19;20105;-95
2024/03/10 09:04:58;;;;;;;3.05;1.45;;;;;;;35.09;26.70;97839.47;7401686;19;20353;-95
2024/03/10 09:07:28;;;;;;;3.20;1.23;;;;;;;34.72;27.16;97840.19;7397274;19;20018;-96
2024/03/10 09:09:54;;;;;;;2.87;1.03;;;;;;;34.78;27.10;97843.94;7395901;19;20480;-96
2024/03/10 09:12:20;;;;;;;8.60;2.13;;;;;;;34.81;26.99;97847.59;7394326;19;20318;-96
2024/03/10 09:14:47;;;;;;;4.32;1.98;;;;;;;35.01;26.97;97853.81;7392629;19;20039;-91
2024/03/10 09:17:13;;;;;;;7.32;2.17;;;;;;;34.83;27.23;97856.31;7397657;19;20018;-96
2024/03/10 09:19:40;;;;;;;3.50;1.55;;;;;;;34.93;27.00;97859.41;7397806;19;20013;-96
2024/03/10 09:22:08;;;;;;;6.80;2.17;;;;;;;34.56;27.09;97860.88;7397963;19;20033;-94
2024/03/10 09:24:34;;;;;;;9.93;1.95;;;;;;;34.49;27.46;97858.50;7398206;19;20027;-95
2024/03/10 09:27:00;;;;;;;8.77;1.30;;;;;;;34.72;27.07;97857.53;7397450;19;20015;-94
2024/03/10 09:29:26;;;;;;;5.45;1.55;;;;;;;34.44;27.51;97856.97;7395033;19;20358;-93
2024/03/10 09:31:57;;;;;;;4.18;1.58;;;;;;;34.52;27.70;97857.91;7397587;19;20018;-95
2024/03/10 09:34:23;;;;;;;6.32;1.65;;;;;;;34.54;27.29;97849.25;7394497;19;20424;-95
2024/03/10 09:36:50;;;;;;;4.13;1.20;;;;;;;34.71;27.43;97856.09;7396753;19;20037;-96
2024/03/10 09:39:22;;;;;;;4.78;2.13;;;;;;;34.87;27.64;97847.75;7398210;19;20014;-95
2024/03/10 09:41:51;;;;;;;4.68;1.60;;;;;;;34.90;27.23;97855.00;7399890;19;20014;-94
2024/03/10 09:44:18;;;;;;;5.60;1.63;;;;;;;35.32;27.32;97852.91;7398383;19;20118;-95
2024/03/10 09:46:49;;;;;;;3.55;1.23;;;;;;;35.15;27.27;97851.16;7395807;19;20015;-95
2024/03/10 09:49:22;;;;;;;2.92;1.35;;;;;;;35.84;26.55;97852.31;7401066;19;20096;-94
2024/03/10 09:51:49;;;;;;;4.60;2.33;;;;;;;35.78;26.89;97862.38;7402260;19;20007;-95
2024/03/10 09:54:17;;;;;;;5.18;2.03;;;;;;;35.97;26.69;97859.78;7401654;19;20024;-94
2024/03/10 09:56:47;;;;;;;5.18;1.92;;;;;;;35.20;27.20;97857.75;7398236;19;20019;-96
2024/03/10 09:59:39;;;;;;;6.35;2.60;;;;;;;35.06;27.38;97858.25;7398069;19;20038;-96
2024/03/10 10:02:15;;;;;;;3.30;2.15;;;;;;;34.85;26.94;97854.19;7395646;19;20022;-95
2024/03/10 10:04:49;;;;;;;4.43;1.65;;;;;;;34.95;27.53;97853.66;7398102;19;20010;-94
2024/03/10 10:07:17;;;;;;;3.15;1.52;;;;;;;34.98;27.44;97855.16;7399066;19;20051;-95
2024/03/10 10:09:55;;;;;;;5.00;2.03;;;;;;;35.16;27.74;97852.63;7392789;19;20071;-95
2024/03/10 10:12:21;;;;;;;4.45;1.60;;;;;;;35.29;27.40;97848.50;7392193;19;20017;-93
2024/03/10 10:14:47;;;;;;;8.57;1.75;;;;;;;35.28;27.46;97849.22;7395517;19;20011;-94
2024/03/10 10:17:17;;;;;;;9.32;1.95;;;;;;;35.18;27.44;97849.75;7400652;19;20098;-94
2024/03/10 10:19:43;;;;;;;5.10;2.45;;;;;;;35.36;27.09;97852.97;7396094;19;20010;-94
2024/03/10 10:22:11;;;;;;;4.20;1.98;;;;;;;35.25;27.23;97851.34;7395255;19;20018;-94
2024/03/10 10:24:37;;;;;;;1.95;1.85;;;;;;;35.04;27.20;97853.13;7394075;19;20348;-95
2024/03/10 10:27:04;;;;;;;2.80;1.67;;;;;;;35.13;26.79;97854.00;7395460;19;20014;-95
2024/03/10 10:29:45;;;;;;;2.30;0.90;;;;;;;35.21;26.54;97854.16;7392422;19;20007;-91
2024/03/10 10:32:11;;;;;;;3.35;1.73;;;;;;;35.48;26.59;97864.78;7392619;19;20342;-94
2024/03/10 10:34:38;;;;;;;5.15;2.58;;;;;;;35.30;27.00;97867.38;7391676;19;20029;-95
2024/03/10 10:37:04;;;;;;;3.08;2.15;;;;;;;35.63;26.75;97869.38;7395593;19;20011;-94
2024/03/10 10:39:33;;;;;;;5.15;2.58;;;;;;;35.66;26.87;97867.25;7394534;19;20063;-96
2024/03/10 10:41:59;;;;;;;5.65;1.45;;;;;;;35.89;26.58;97871.22;7393649;19;20112;-95
2024/03/10 10:44:25;;;;;;;4.93;1.70;;;;;;;35.39;27.02;97880.53;7391193;19;20014;-93
2024/03/10 10:46:52;;;;;;;2.83;2.03;;;;;;;35.10;26.62;97884.34;7390595;19;20036;-94
2024/03/10 10:49:21;;;;;;;2.35;1.75;;;;;;;36.01;25.93;97877.22;7392817;19;20368;-94
2024/03/10 10:51:52;;;;;;;5.32;2.42;;;;;;;35.36;26.41;97881.94;7391205;19;20033;-92
2024/03/10 10:54:19;;;;;;;5.85;2.40;;;;;;;35.24;26.11;97892.56;7392405;19;20019;-93
2024/03/10 10:56:54;;;;;;;3.75;1.33;;;;;;;35.14;26.60;97890.22;7392723;19;20035;-94
2024/03/10 10:59:24;;;;;;;4.82;1.85;;;;;;;36.04;25.66;97896.13;7393843;19;20034;-94
2024/03/10 11:02:05;;;;;;;5.00;2.65;;;;;;;35.13;26.03;97896.72;7391920;19;20010;-93
2024/03/10 11:04:32;;;;;;;6.57;2.63;;;;;;;35.13;26.12;97894.53;7397859;19;20038;-93
2024/03/10 11:06:58;;;;;;;4.65;3.30;;;;;;;35.10;26.01;97900.97;7397794;19;20082;-93
2024/03/10 11:09:28;;;;;;;14.07;2.63;;;;;;;34.96;26.44;97905.03;7394687;19;20042;-94
2024/03/10 11:11:54;;;;;;;10.73;2.50;;;;;;;34.79;26.35;97908.31;7394177;19;20011;-93
2024/03/10 11:14:25;;;;;;;5.07;3.13;;;;;;;34.53;26.55;97913.56;7394759;19;20394;-93
2024/03/10 11:17:10;;;;;;;;;;;;;;;34.80;26.40;97919.22;7391860;19;20018;-93
2024/03/10 11:19:38;;;;;;;6.05;1.88;;;;;;;34.17;26.53;97911.31;7393170;19;19952;-93
2024/03/10 11:22:07;;;;;;;9.73;2.55;;;;;;;33.78;26.57;97916.84;7394121;19;20037;-94
2024/03/10 11:24:33;;;;;;;5.28;1.83;;;;;;;33.89;26.77;97927.97;7393141;19;20018;-94
2024/03/10 11:27:18;;;;;;;5.43;2.63;;;;;;;34.27;26.91;97923.09;7392318;19;20010;-94
2024/03/10 11:29:45;;;;;;;11.10;3.22;;;;;;;33.87;26.98;97924.28;7394657;19;20019;-93
2024/03/10 11:32:30;;;;;;;6.82;2.10;;;;;;;33.87;26.72;97930.81;7392043;19;20047;-92
2024/03/10 11:34:59;;;;;;;3.38;1.67;;;;;;;33.70;26.42;97928.22;7390609;19;20033;-94
2024/03/10 11:37:25;;;;;;;7.70;2.83;;;;;;;33.73;26.87;97933.34;7392154;19;20011;-93
2024/03/10 11:39:53;;;;;;;10.55;2.47;;;;;;;33.73;26.50;97933.34;7390750;19;20018;-94
2024/03/10 11:42:19;;;;;;;6.40;2.65;;;;;;;33.76;26.76;97937.75;7396698;19;20042;-94
2024/03/10 11:44:46;;;;;;;7.07;2.80;;;;;;;33.44;26.99;97928.25;7392124;19;20464;-94
2024/03/10 11:47:12;;;;;;;17.98;1.35;;;;;;;33.74;26.38;97940.59;7389571;19;20018;-94
2024/03/10 11:49:39;;;;;;;8.35;3.08;;;;;;;34.73;25.62;97940.00;7390163;19;20022;-95
2024/03/10 11:52:06;;;;;;;9.20;2.42;;;;;;;34.28;26.07;97950.56;7390587;19;20014;-93
2024/03/10 11:54:35;;;;;;;5.70;2.20;;;;;;;34.39;26.02;97957.34;7394210;19;20036;-95
2024/03/10 11:57:02;;;;;;;8.43;3.17;;;;;;;35.09;25.76;97946.56;7393534;19;20026;-94
2024/03/10 11:59:30;;;;;;;9.35;2.67;;;;;;;34.30;26.03;97967.97;7390825;19;20006;-95